sensor_id;sensor_type;location;lat;lon;timestamp;P1;durP1;ratioP1;P2;durP2;ratioP2
46282;SDS011;32017;43.700;11.820;2023-03-31T00:00:57;8.60;;;5.03;;
46282;SDS011;32017;43.700;11.820;2023-03-31T00:03:19;5.20;;;4.13;;
46282;SDS011;32017;43.700;11.820;2023-03-31T00:05:43;7.80;;;3.90;;
46282;SDS011;32017;43.700;11.820;2023-03-31T00:08:06;7.90;;;3.88;;
46282;SDS011;32017;43.700;11.820;2023-03-31T00:10:28;5.80;;;3.40;;
46282;SDS011;32017;43.700;11.820;2023-03-31T00:12:50;4.68;;;3.70;;
46282;SDS011;32017;43.700;11.820;2023-03-31T00:15:10;8.43;;;3.92;;
46282;SDS011;32017;43.700;11.820;2023-03-31T00:17:31;4.00;;;3.70;;
46282;SDS011;32017;43.700;11.820;2023-03-31T00:19:51;10.70;;;4.65;;
46282;SDS011;32017;43.700;11.820;2023-03-31T00:22:11;5.57;;;4.07;;
46282;SDS011;32017;43.700;11.820;2023-03-31T00:24:32;6.25;;;4.07;;
46282;SDS011;32017;43.700;11.820;2023-03-31T00:26:52;7.00;;;4.40;;
46282;SDS011;32017;43.700;11.820;2023-03-31T00:29:12;6.15;;;4.20;;
46282;SDS011;32017;43.700;11.820;2023-03-31T00:31:33;11.88;;;3.95;;
46282;SDS011;32017;43.700;11.820;2023-03-31T00:33:54;6.78;;;4.50;;
46282;SDS011;32017;43.700;11.820;2023-03-31T00:36:14;4.82;;;3.50;;
46282;SDS011;32017;43.700;11.820;2023-03-31T00:38:46;8.35;;;5.03;;
46282;SDS011;32017;43.700;11.820;2023-03-31T00:41:06;9.77;;;6.25;;
46282;SDS011;32017;43.700;11.820;2023-03-31T00:43:28;5.07;;;4.43;;
46282;SDS011;32017;43.700;11.820;2023-03-31T00:45:49;5.10;;;4.70;;
46282;SDS011;32017;43.700;11.820;2023-03-31T00:48:13;13.80;;;4.78;;
46282;SDS011;32017;43.700;11.820;2023-03-31T00:50:36;8.48;;;4.10;;
46282;SDS011;32017;43.700;11.820;2023-03-31T00:53:01;6.20;;;4.35;;
46282;SDS011;32017;43.700;11.820;2023-03-31T00:55:23;10.27;;;4.68;;
46282;SDS011;32017;43.700;11.820;2023-03-31T00:57:44;10.93;;;4.55;;
46282;SDS011;32017;43.700;11.820;2023-03-31T01:00:09;10.43;;;4.25;;
46282;SDS011;32017;43.700;11.820;2023-03-31T01:02:34;5.65;;;4.88;;
46282;SDS011;32017;43.700;11.820;2023-03-31T01:04:59;4.55;;;4.22;;
46282;SDS011;32017;43.700;11.820;2023-03-31T01:07:42;11.65;;;5.05;;
46282;SDS011;32017;43.700;11.820;2023-03-31T01:10:01;11.57;;;5.13;;
46282;SDS011;32017;43.700;11.820;2023-03-31T01:12:23;8.27;;;4.65;;
46282;SDS011;32017;43.700;11.820;2023-03-31T01:14:43;8.75;;;4.28;;
46282;SDS011;32017;43.700;11.820;2023-03-31T01:17:04;6.85;;;4.47;;
46282;SDS011;32017;43.700;11.820;2023-03-31T01:34:38;7.25;;;4.40;;
46282;SDS011;32017;43.700;11.820;2023-03-31T01:42:19;8.50;;;4.55;;
46282;SDS011;32017;43.700;11.820;2023-03-31T01:47:05;8.73;;;3.28;;
46282;SDS011;32017;43.700;11.820;2023-03-31T01:51:54;11.60;;;3.65;;
46282;SDS011;32017;43.700;11.820;2023-03-31T01:56:45;7.10;;;4.68;;
46282;SDS011;32017;43.700;11.820;2023-03-31T01:59:08;11.05;;;3.97;;
46282;SDS011;32017;43.700;11.820;2023-03-31T02:01:31;8.13;;;4.13;;
46282;SDS011;32017;43.700;11.820;2023-03-31T02:03:57;8.50;;;4.85;;
46282;SDS011;32017;43.700;11.820;2023-03-31T02:06:19;7.90;;;4.22;;
46282;SDS011;32017;43.700;11.820;2023-03-31T02:08:43;6.90;;;4.22;;
46282;SDS011;32017;43.700;11.820;2023-03-31T02:11:04;6.72;;;4.05;;
46282;SDS011;32017;43.700;11.820;2023-03-31T02:13:25;5.50;;;5.00;;
46282;SDS011;32017;43.700;11.820;2023-03-31T02:15:46;7.57;;;3.47;;
46282;SDS011;32017;43.700;11.820;2023-03-31T02:18:10;9.20;;;5.05;;
46282;SDS011;32017;43.700;11.820;2023-03-31T02:20:32;5.45;;;4.13;;
46282;SDS011;32017;43.700;11.820;2023-03-31T02:22:53;6.80;;;4.57;;
46282;SDS011;32017;43.700;11.820;2023-03-31T02:25:16;7.95;;;5.70;;
46282;SDS011;32017;43.700;11.820;2023-03-31T02:27:38;6.90;;;4.05;;
46282;SDS011;32017;43.700;11.820;2023-03-31T02:30:00;9.13;;;4.75;;
46282;SDS011;32017;43.700;11.820;2023-03-31T02:34:53;12.73;;;4.50;;
46282;SDS011;32017;43.700;11.820;2023-03-31T02:37:13;8.88;;;4.22;;
46282;SDS011;32017;43.700;11.820;2023-03-31T02:39:35;5.07;;;4.70;;
46282;SDS011;32017;43.700;11.820;2023-03-31T02:41:55;4.80;;;3.22;;
46282;SDS011;32017;43.700;11.820;2023-03-31T02:44:16;4.82;;;3.72;;
46282;SDS011;32017;43.700;11.820;2023-03-31T02:46:37;9.05;;;4.70;;
46282;SDS011;32017;43.700;11.820;2023-03-31T02:48:58;5.45;;;5.07;;
46282;SDS011;32017;43.700;11.820;2023-03-31T03:01:26;5.50;;;3.63;;
46282;SDS011;32017;43.700;11.820;2023-03-31T03:11:51;7.47;;;4.45;;
46282;SDS011;32017;43.700;11.820;2023-03-31T03:14:31;10.75;;;5.03;;
46282;SDS011;32017;43.700;11.820;2023-03-31T03:17:17;4.32;;;4.03;;
46282;SDS011;32017;43.700;11.820;2023-03-31T03:19:36;5.00;;;4.55;;
46282;SDS011;32017;43.700;11.820;2023-03-31T03:21:56;7.47;;;4.57;;
46282;SDS011;32017;43.700;11.820;2023-03-31T03:24:16;7.70;;;5.55;;
46282;SDS011;32017;43.700;11.820;2023-03-31T03:26:37;4.68;;;4.05;;
46282;SDS011;32017;43.700;11.820;2023-03-31T03:28:58;5.78;;;3.60;;
46282;SDS011;32017;43.700;11.820;2023-03-31T03:31:18;3.97;;;3.60;;
46282;SDS011;32017;43.700;11.820;2023-03-31T03:33:39;6.20;;;4.40;;
46282;SDS011;32017;43.700;11.820;2023-03-31T03:35:59;4.68;;;3.47;;
46282;SDS011;32017;43.700;11.820;2023-03-31T03:38:20;3.80;;;3.45;;
46282;SDS011;32017;43.700;11.820;2023-03-31T03:40:40;6.28;;;4.93;;
46282;SDS011;32017;43.700;11.820;2023-03-31T03:43:00;6.20;;;4.78;;
46282;SDS011;32017;43.700;11.820;2023-03-31T03:45:20;13.02;;;4.50;;
46282;SDS011;32017;43.700;11.820;2023-03-31T03:47:40;7.72;;;3.80;;
46282;SDS011;32017;43.700;11.820;2023-03-31T03:50:00;7.07;;;3.75;;
46282;SDS011;32017;43.700;11.820;2023-03-31T03:52:21;8.85;;;5.30;;
46282;SDS011;32017;43.700;11.820;2023-03-31T03:54:41;8.25;;;5.20;;
46282;SDS011;32017;43.700;11.820;2023-03-31T03:57:01;5.35;;;4.82;;
46282;SDS011;32017;43.700;11.820;2023-03-31T03:59:21;10.40;;;4.35;;
46282;SDS011;32017;43.700;11.820;2023-03-31T04:01:42;10.00;;;4.47;;
46282;SDS011;32017;43.700;11.820;2023-03-31T04:04:02;10.40;;;5.78;;
46282;SDS011;32017;43.700;11.820;2023-03-31T04:06:23;6.25;;;5.30;;
46282;SDS011;32017;43.700;11.820;2023-03-31T04:08:43;6.30;;;4.75;;
46282;SDS011;32017;43.700;11.820;2023-03-31T04:11:08;9.15;;;3.83;;
46282;SDS011;32017;43.700;11.820;2023-03-31T04:13:29;5.10;;;4.63;;
46282;SDS011;32017;43.700;11.820;2023-03-31T04:15:49;9.82;;;4.22;;
46282;SDS011;32017;43.700;11.820;2023-03-31T04:18:09;8.63;;;4.13;;
46282;SDS011;32017;43.700;11.820;2023-03-31T04:20:36;8.50;;;4.28;;
46282;SDS011;32017;43.700;11.820;2023-03-31T04:22:57;4.97;;;4.47;;
46282;SDS011;32017;43.700;11.820;2023-03-31T04:25:17;10.85;;;4.70;;
46282;SDS011;32017;43.700;11.820;2023-03-31T04:27:38;5.47;;;4.90;;
46282;SDS011;32017;43.700;11.820;2023-03-31T04:30:04;9.20;;;6.57;;
46282;SDS011;32017;43.700;11.820;2023-03-31T04:32:26;10.43;;;5.68;;
46282;SDS011;32017;43.700;11.820;2023-03-31T04:34:51;8.48;;;4.35;;
46282;SDS011;32017;43.700;11.820;2023-03-31T04:37:20;12.05;;;6.03;;
46282;SDS011;32017;43.700;11.820;2023-03-31T04:39:40;6.85;;;5.38;;
46282;SDS011;32017;43.700;11.820;2023-03-31T04:42:04;7.13;;;4.75;;
46282;SDS011;32017;43.700;11.820;2023-03-31T04:44:24;5.28;;;4.25;;
46282;SDS011;32017;43.700;11.820;2023-03-31T04:46:45;7.15;;;4.72;;
46282;SDS011;32017;43.700;11.820;2023-03-31T04:49:05;8.57;;;4.28;;
46282;SDS011;32017;43.700;11.820;2023-03-31T04:51:26;5.80;;;4.75;;
46282;SDS011;32017;43.700;11.820;2023-03-31T04:53:46;5.18;;;4.78;;
46282;SDS011;32017;43.700;11.820;2023-03-31T04:56:06;6.63;;;5.05;;
46282;SDS011;32017;43.700;11.820;2023-03-31T04:58:27;4.28;;;3.97;;
46282;SDS011;32017;43.700;11.820;2023-03-31T05:00:48;7.63;;;5.40;;
46282;SDS011;32017;43.700;11.820;2023-03-31T05:03:08;8.00;;;5.40;;
46282;SDS011;32017;43.700;11.820;2023-03-31T05:05:28;4.82;;;4.25;;
46282;SDS011;32017;43.700;11.820;2023-03-31T05:07:48;5.65;;;4.13;;
46282;SDS011;32017;43.700;11.820;2023-03-31T05:10:09;5.97;;;4.22;;
46282;SDS011;32017;43.700;11.820;2023-03-31T05:12:32;5.20;;;4.85;;
46282;SDS011;32017;43.700;11.820;2023-03-31T05:14:53;6.82;;;6.15;;
46282;SDS011;32017;43.700;11.820;2023-03-31T05:17:13;6.88;;;4.72;;
46282;SDS011;32017;43.700;11.820;2023-03-31T05:19:35;14.65;;;5.97;;
46282;SDS011;32017;43.700;11.820;2023-03-31T05:21:56;11.30;;;5.57;;
46282;SDS011;32017;43.700;11.820;2023-03-31T05:24:16;14.23;;;6.43;;
46282;SDS011;32017;43.700;11.820;2023-03-31T05:26:36;11.07;;;5.45;;
46282;SDS011;32017;43.700;11.820;2023-03-31T05:28:57;7.55;;;5.97;;
46282;SDS011;32017;43.700;11.820;2023-03-31T05:31:18;12.52;;;5.55;;
46282;SDS011;32017;43.700;11.820;2023-03-31T05:33:39;5.70;;;4.40;;
46282;SDS011;32017;43.700;11.820;2023-03-31T05:35:59;8.85;;;4.82;;
46282;SDS011;32017;43.700;11.820;2023-03-31T05:38:20;7.35;;;4.63;;
46282;SDS011;32017;43.700;11.820;2023-03-31T05:40:40;14.23;;;4.25;;
46282;SDS011;32017;43.700;11.820;2023-03-31T05:43:00;4.05;;;3.92;;
46282;SDS011;32017;43.700;11.820;2023-03-31T05:45:21;5.47;;;3.85;;
46282;SDS011;32017;43.700;11.820;2023-03-31T05:47:41;10.73;;;6.05;;
46282;SDS011;32017;43.700;11.820;2023-03-31T05:50:02;7.65;;;4.82;;
46282;SDS011;32017;43.700;11.820;2023-03-31T05:52:25;5.80;;;4.78;;
46282;SDS011;32017;43.700;11.820;2023-03-31T05:54:45;7.25;;;5.35;;
46282;SDS011;32017;43.700;11.820;2023-03-31T05:57:06;5.70;;;4.88;;
46282;SDS011;32017;43.700;11.820;2023-03-31T05:59:26;8.38;;;4.85;;
46282;SDS011;32017;43.700;11.820;2023-03-31T06:01:47;6.75;;;5.68;;
46282;SDS011;32017;43.700;11.820;2023-03-31T06:04:07;8.95;;;4.53;;
46282;SDS011;32017;43.700;11.820;2023-03-31T06:06:27;8.95;;;5.82;;
46282;SDS011;32017;43.700;11.820;2023-03-31T06:08:48;9.23;;;5.35;;
46282;SDS011;32017;43.700;11.820;2023-03-31T06:11:09;5.85;;;5.15;;
46282;SDS011;32017;43.700;11.820;2023-03-31T06:13:29;7.18;;;5.53;;
46282;SDS011;32017;43.700;11.820;2023-03-31T06:15:56;6.63;;;4.93;;
46282;SDS011;32017;43.700;11.820;2023-03-31T06:18:17;7.95;;;5.47;;
46282;SDS011;32017;43.700;11.820;2023-03-31T06:20:37;10.75;;;6.65;;
46282;SDS011;32017;43.700;11.820;2023-03-31T06:22:57;4.70;;;4.30;;
46282;SDS011;32017;43.700;11.820;2023-03-31T06:25:17;12.43;;;6.75;;
46282;SDS011;32017;43.700;11.820;2023-03-31T06:27:37;9.48;;;5.00;;
46282;SDS011;32017;43.700;11.820;2023-03-31T06:29:57;7.97;;;6.13;;
46282;SDS011;32017;43.700;11.820;2023-03-31T06:32:17;7.57;;;5.65;;
46282;SDS011;32017;43.700;11.820;2023-03-31T06:34:38;12.15;;;6.25;;
46282;SDS011;32017;43.700;11.820;2023-03-31T06:36:58;7.38;;;6.68;;
46282;SDS011;32017;43.700;11.820;2023-03-31T06:39:18;14.73;;;6.30;;
46282;SDS011;32017;43.700;11.820;2023-03-31T06:41:39;12.20;;;7.07;;
46282;SDS011;32017;43.700;11.820;2023-03-31T06:43:59;5.57;;;5.03;;
46282;SDS011;32017;43.700;11.820;2023-03-31T06:46:19;7.35;;;5.93;;
46282;SDS011;32017;43.700;11.820;2023-03-31T06:48:39;13.70;;;6.70;;
46282;SDS011;32017;43.700;11.820;2023-03-31T06:51:00;11.82;;;6.57;;
46282;SDS011;32017;43.700;11.820;2023-03-31T06:53:21;14.85;;;6.82;;
46282;SDS011;32017;43.700;11.820;2023-03-31T06:55:41;8.02;;;5.95;;
46282;SDS011;32017;43.700;11.820;2023-03-31T06:58:01;8.82;;;5.72;;
46282;SDS011;32017;43.700;11.820;2023-03-31T07:00:21;8.55;;;7.00;;
46282;SDS011;32017;43.700;11.820;2023-03-31T07:02:44;9.73;;;6.78;;
46282;SDS011;32017;43.700;11.820;2023-03-31T07:05:04;7.28;;;6.63;;
46282;SDS011;32017;43.700;11.820;2023-03-31T07:07:24;10.60;;;5.25;;
46282;SDS011;32017;43.700;11.820;2023-03-31T07:09:44;6.05;;;5.65;;
46282;SDS011;32017;43.700;11.820;2023-03-31T07:12:04;7.35;;;5.38;;
46282;SDS011;32017;43.700;11.820;2023-03-31T07:14:25;6.30;;;5.78;;
46282;SDS011;32017;43.700;11.820;2023-03-31T07:16:45;6.15;;;5.03;;
46282;SDS011;32017;43.700;11.820;2023-03-31T07:19:05;11.52;;;8.02;;
46282;SDS011;32017;43.700;11.820;2023-03-31T07:21:25;6.03;;;5.47;;
46282;SDS011;32017;43.700;11.820;2023-03-31T07:23:46;10.63;;;7.38;;
46282;SDS011;32017;43.700;11.820;2023-03-31T07:26:06;6.75;;;6.07;;
46282;SDS011;32017;43.700;11.820;2023-03-31T07:28:27;11.38;;;6.50;;
46282;SDS011;32017;43.700;11.820;2023-03-31T07:30:47;7.95;;;7.20;;
46282;SDS011;32017;43.700;11.820;2023-03-31T07:33:08;10.07;;;6.20;;
46282;SDS011;32017;43.700;11.820;2023-03-31T07:35:29;10.25;;;7.45;;
46282;SDS011;32017;43.700;11.820;2023-03-31T07:37:50;7.82;;;6.95;;
46282;SDS011;32017;43.700;11.820;2023-03-31T07:40:15;8.40;;;6.15;;
46282;SDS011;32017;43.700;11.820;2023-03-31T07:42:35;7.55;;;7.05;;
46282;SDS011;32017;43.700;11.820;2023-03-31T07:44:56;8.40;;;6.55;;
46282;SDS011;32017;43.700;11.820;2023-03-31T07:47:16;8.95;;;7.72;;
46282;SDS011;32017;43.700;11.820;2023-03-31T07:49:37;8.75;;;5.70;;
46282;SDS011;32017;43.700;11.820;2023-03-31T07:51:57;7.78;;;7.15;;
46282;SDS011;32017;43.700;11.820;2023-03-31T07:54:17;8.93;;;6.45;;
46282;SDS011;32017;43.700;11.820;2023-03-31T07:56:37;12.88;;;5.80;;
46282;SDS011;32017;43.700;11.820;2023-03-31T07:58:57;9.60;;;7.35;;
46282;SDS011;32017;43.700;11.820;2023-03-31T08:01:18;7.50;;;6.43;;
46282;SDS011;32017;43.700;11.820;2023-03-31T08:03:39;6.22;;;5.70;;
46282;SDS011;32017;43.700;11.820;2023-03-31T08:06:00;7.35;;;5.07;;
46282;SDS011;32017;43.700;11.820;2023-03-31T08:08:20;7.85;;;6.70;;
46282;SDS011;32017;43.700;11.820;2023-03-31T08:10:40;11.98;;;6.63;;
46282;SDS011;32017;43.700;11.820;2023-03-31T08:13:00;7.00;;;6.20;;
46282;SDS011;32017;43.700;11.820;2023-03-31T08:15:20;7.78;;;5.80;;
46282;SDS011;32017;43.700;11.820;2023-03-31T08:17:41;6.97;;;5.75;;
46282;SDS011;32017;43.700;11.820;2023-03-31T08:20:02;9.40;;;6.75;;
46282;SDS011;32017;43.700;11.820;2023-03-31T08:22:27;18.88;;;7.43;;
46282;SDS011;32017;43.700;11.820;2023-03-31T08:24:47;9.75;;;6.47;;
46282;SDS011;32017;43.700;11.820;2023-03-31T08:27:07;8.43;;;6.03;;
46282;SDS011;32017;43.700;11.820;2023-03-31T08:29:31;9.70;;;6.70;;
46282;SDS011;32017;43.700;11.820;2023-03-31T08:31:52;11.55;;;5.95;;
46282;SDS011;32017;43.700;11.820;2023-03-31T08:34:12;7.72;;;5.80;;
46282;SDS011;32017;43.700;11.820;2023-03-31T08:36:33;9.73;;;6.30;;
46282;SDS011;32017;43.700;11.820;2023-03-31T08:38:54;13.07;;;6.18;;
46282;SDS011;32017;43.700;11.820;2023-03-31T08:45:58;14.00;;;7.30;;
46282;SDS011;32017;43.700;11.820;2023-03-31T08:50:44;10.98;;;7.75;;
46282;SDS011;32017;43.700;11.820;2023-03-31T08:53:07;6.80;;;6.22;;
46282;SDS011;32017;43.700;11.820;2023-03-31T08:55:35;8.60;;;7.50;;
46282;SDS011;32017;43.700;11.820;2023-03-31T09:00:20;9.85;;;7.55;;
46282;SDS011;32017;43.700;11.820;2023-03-31T09:10:26;15.98;;;8.70;;
46282;SDS011;32017;43.700;11.820;2023-03-31T09:13:37;7.65;;;6.70;;
46282;SDS011;32017;43.700;11.820;2023-03-31T09:15:35;13.65;;;7.07;;
46282;SDS011;32017;43.700;11.820;2023-03-31T09:18:02;9.93;;;8.07;;
46282;SDS011;32017;43.700;11.820;2023-03-31T09:20:30;8.70;;;7.32;;
46282;SDS011;32017;43.700;11.820;2023-03-31T09:22:52;8.25;;;7.35;;
46282;SDS011;32017;43.700;11.820;2023-03-31T09:25:17;8.77;;;8.00;;
46282;SDS011;32017;43.700;11.820;2023-03-31T09:27:39;17.13;;;8.93;;
46282;SDS011;32017;43.700;11.820;2023-03-31T09:32:39;9.05;;;8.18;;
46282;SDS011;32017;43.700;11.820;2023-03-31T09:35:01;8.30;;;7.47;;
46282;SDS011;32017;43.700;11.820;2023-03-31T09:37:31;13.55;;;7.55;;
46282;SDS011;32017;43.700;11.820;2023-03-31T09:39:51;8.50;;;7.70;;
46282;SDS011;32017;43.700;11.820;2023-03-31T09:42:12;8.93;;;7.88;;
46282;SDS011;32017;43.700;11.820;2023-03-31T09:44:37;10.85;;;7.70;;
46282;SDS011;32017;43.700;11.820;2023-03-31T09:46:57;11.52;;;7.43;;
46282;SDS011;32017;43.700;11.820;2023-03-31T09:49:20;14.18;;;10.45;;
46282;SDS011;32017;43.700;11.820;2023-03-31T09:51:41;10.43;;;7.10;;
46282;SDS011;32017;43.700;11.820;2023-03-31T09:56:47;9.25;;;8.43;;
46282;SDS011;32017;43.700;11.820;2023-03-31T09:59:14;9.95;;;7.00;;
46282;SDS011;32017;43.700;11.820;2023-03-31T10:01:35;16.13;;;10.40;;
46282;SDS011;32017;43.700;11.820;2023-03-31T10:03:55;17.88;;;9.60;;
46282;SDS011;32017;43.700;11.820;2023-03-31T10:06:16;10.43;;;8.73;;
46282;SDS011;32017;43.700;11.820;2023-03-31T10:08:37;12.73;;;8.93;;
46282;SDS011;32017;43.700;11.820;2023-03-31T10:15:41;8.93;;;6.65;;
46282;SDS011;32017;43.700;11.820;2023-03-31T10:18:02;16.08;;;8.77;;
46282;SDS011;32017;43.700;11.820;2023-03-31T10:20:33;9.57;;;7.93;;
46282;SDS011;32017;43.700;11.820;2023-03-31T10:22:55;13.25;;;6.75;;
46282;SDS011;32017;43.700;11.820;2023-03-31T10:25:22;10.40;;;9.18;;
46282;SDS011;32017;43.700;11.820;2023-03-31T10:30:04;14.07;;;8.18;;
46282;SDS011;32017;43.700;11.820;2023-03-31T10:32:37;6.07;;;5.55;;
46282;SDS011;32017;43.700;11.820;2023-03-31T10:35:21;8.32;;;7.47;;
46282;SDS011;32017;43.700;11.820;2023-03-31T10:37:42;7.57;;;6.95;;
46282;SDS011;32017;43.700;11.820;2023-03-31T10:40:03;13.77;;;8.23;;
46282;SDS011;32017;43.700;11.820;2023-03-31T10:42:25;11.30;;;6.72;;
46282;SDS011;32017;43.700;11.820;2023-03-31T10:44:46;8.02;;;6.55;;
46282;SDS011;32017;43.700;11.820;2023-03-31T10:49:36;7.28;;;5.35;;
46282;SDS011;32017;43.700;11.820;2023-03-31T10:51:58;6.13;;;5.63;;
46282;SDS011;32017;43.700;11.820;2023-03-31T10:54:23;8.40;;;5.70;;
46282;SDS011;32017;43.700;11.820;2023-03-31T10:56:47;6.65;;;5.70;;
46282;SDS011;32017;43.700;11.820;2023-03-31T11:06:15;8.75;;;7.10;;
46282;SDS011;32017;43.700;11.820;2023-03-31T11:13:45;13.75;;;5.50;;
46282;SDS011;32017;43.700;11.820;2023-03-31T11:18:31;7.75;;;5.78;;
46282;SDS011;32017;43.700;11.820;2023-03-31T11:21:02;6.70;;;5.68;;
46282;SDS011;32017;43.700;11.820;2023-03-31T11:31:58;10.02;;;5.80;;
46282;SDS011;32017;43.700;11.820;2023-03-31T11:41:40;8.77;;;6.72;;
46282;SDS011;32017;43.700;11.820;2023-03-31T11:44:03;15.02;;;6.82;;
46282;SDS011;32017;43.700;11.820;2023-03-31T11:48:50;13.15;;;5.40;;
46282;SDS011;32017;43.700;11.820;2023-03-31T11:51:17;6.88;;;6.30;;
46282;SDS011;32017;43.700;11.820;2023-03-31T11:53:38;9.65;;;6.22;;
46282;SDS011;32017;43.700;11.820;2023-03-31T11:55:59;9.43;;;8.05;;
46282;SDS011;32017;43.700;11.820;2023-03-31T11:58:34;14.05;;;7.63;;
46282;SDS011;32017;43.700;11.820;2023-03-31T12:00:57;10.18;;;6.03;;
46282;SDS011;32017;43.700;11.820;2023-03-31T12:03:32;8.90;;;7.05;;
46282;SDS011;32017;43.700;11.820;2023-03-31T12:05:56;13.65;;;7.90;;
46282;SDS011;32017;43.700;11.820;2023-03-31T12:08:22;7.95;;;7.25;;
46282;SDS011;32017;43.700;11.820;2023-03-31T12:10:45;13.30;;;7.93;;
46282;SDS011;32017;43.700;11.820;2023-03-31T12:15:50;8.63;;;6.38;;
46282;SDS011;32017;43.700;11.820;2023-03-31T12:18:18;11.60;;;6.10;;
46282;SDS011;32017;43.700;11.820;2023-03-31T12:20:40;8.68;;;5.38;;
46282;SDS011;32017;43.700;11.820;2023-03-31T12:23:01;10.80;;;6.20;;
46282;SDS011;32017;43.700;11.820;2023-03-31T12:25:22;9.02;;;5.70;;
46282;SDS011;32017;43.700;11.820;2023-03-31T12:27:46;10.38;;;6.43;;
46282;SDS011;32017;43.700;11.820;2023-03-31T12:30:11;13.30;;;7.38;;
46282;SDS011;32017;43.700;11.820;2023-03-31T12:32:33;8.27;;;5.93;;
46282;SDS011;32017;43.700;11.820;2023-03-31T12:34:58;5.68;;;5.18;;
46282;SDS011;32017;43.700;11.820;2023-03-31T12:37:28;7.72;;;5.93;;
46282;SDS011;32017;43.700;11.820;2023-03-31T12:39:56;6.35;;;4.97;;
46282;SDS011;32017;43.700;11.820;2023-03-31T12:44:56;11.43;;;5.72;;
46282;SDS011;32017;43.700;11.820;2023-03-31T12:52:17;7.65;;;4.75;;
46282;SDS011;32017;43.700;11.820;2023-03-31T12:57:07;7.13;;;4.45;;
46282;SDS011;32017;43.700;11.820;2023-03-31T13:02:34;9.20;;;5.60;;
46282;SDS011;32017;43.700;11.820;2023-03-31T13:04:35;6.93;;;6.28;;
46282;SDS011;32017;43.700;11.820;2023-03-31T13:06:56;11.13;;;5.68;;
46282;SDS011;32017;43.700;11.820;2023-03-31T13:11:39;6.05;;;4.50;;
46282;SDS011;32017;43.700;11.820;2023-03-31T13:16:22;4.90;;;4.28;;
46282;SDS011;32017;43.700;11.820;2023-03-31T13:18:42;8.10;;;5.55;;
46282;SDS011;32017;43.700;11.820;2023-03-31T13:21:09;9.90;;;4.65;;
46282;SDS011;32017;43.700;11.820;2023-03-31T13:23:34;13.00;;;5.30;;
46282;SDS011;32017;43.700;11.820;2023-03-31T13:25:55;8.55;;;4.20;;
46282;SDS011;32017;43.700;11.820;2023-03-31T13:30:45;9.00;;;5.47;;
46282;SDS011;32017;43.700;11.820;2023-03-31T13:33:06;3.63;;;3.22;;
46282;SDS011;32017;43.700;11.820;2023-03-31T13:35:29;8.50;;;4.30;;
46282;SDS011;32017;43.700;11.820;2023-03-31T13:37:56;4.65;;;4.15;;
46282;SDS011;32017;43.700;11.820;2023-03-31T13:45:41;7.05;;;3.70;;
46282;SDS011;32017;43.700;11.820;2023-03-31T14:05:58;7.80;;;6.03;;
46282;SDS011;32017;43.700;11.820;2023-03-31T14:10:50;9.52;;;5.45;;
46282;SDS011;32017;43.700;11.820;2023-03-31T14:15:30;8.35;;;4.50;;
46282;SDS011;32017;43.700;11.820;2023-03-31T14:17:51;10.30;;;5.32;;
46282;SDS011;32017;43.700;11.820;2023-03-31T14:20:21;6.25;;;4.78;;
46282;SDS011;32017;43.700;11.820;2023-03-31T14:27:50;9.60;;;4.90;;
46282;SDS011;32017;43.700;11.820;2023-03-31T14:30:15;7.53;;;4.65;;
46282;SDS011;32017;43.700;11.820;2023-03-31T14:37:42;5.88;;;5.10;;
46282;SDS011;32017;43.700;11.820;2023-03-31T14:40:02;7.57;;;4.85;;
46282;SDS011;32017;43.700;11.820;2023-03-31T14:42:27;7.20;;;4.65;;
46282;SDS011;32017;43.700;11.820;2023-03-31T14:44:48;10.48;;;5.05;;
46282;SDS011;32017;43.700;11.820;2023-03-31T14:47:14;7.20;;;4.88;;
46282;SDS011;32017;43.700;11.820;2023-03-31T14:49:36;11.80;;;5.63;;
46282;SDS011;32017;43.700;11.820;2023-03-31T14:52:00;13.32;;;6.55;;
46282;SDS011;32017;43.700;11.820;2023-03-31T14:54:21;12.95;;;6.55;;
46282;SDS011;32017;43.700;11.820;2023-03-31T14:56:41;11.10;;;6.18;;
46282;SDS011;32017;43.700;11.820;2023-03-31T14:59:02;13.93;;;7.78;;
46282;SDS011;32017;43.700;11.820;2023-03-31T15:01:24;9.27;;;6.20;;
46282;SDS011;32017;43.700;11.820;2023-03-31T15:03:46;14.23;;;6.68;;
46282;SDS011;32017;43.700;11.820;2023-03-31T15:06:06;14.48;;;7.57;;
46282;SDS011;32017;43.700;11.820;2023-03-31T15:08:26;9.10;;;7.40;;
46282;SDS011;32017;43.700;11.820;2023-03-31T15:10:50;8.53;;;6.67;;
46282;SDS011;32017;43.700;11.820;2023-03-31T15:13:31;10.00;;;5.90;;
46282;SDS011;32017;43.700;11.820;2023-03-31T15:15:52;13.38;;;7.60;;
46282;SDS011;32017;43.700;11.820;2023-03-31T15:18:13;24.33;;;6.40;;
46282;SDS011;32017;43.700;11.820;2023-03-31T15:20:37;11.65;;;7.45;;
46282;SDS011;32017;43.700;11.820;2023-03-31T15:22:58;6.75;;;5.50;;
46282;SDS011;32017;43.700;11.820;2023-03-31T15:25:19;19.77;;;6.85;;
46282;SDS011;32017;43.700;11.820;2023-03-31T15:27:44;12.05;;;6.60;;
46282;SDS011;32017;43.700;11.820;2023-03-31T15:30:06;19.60;;;6.97;;
46282;SDS011;32017;43.700;11.820;2023-03-31T15:32:28;8.60;;;5.47;;
46282;SDS011;32017;43.700;11.820;2023-03-31T15:34:49;15.93;;;6.40;;
46282;SDS011;32017;43.700;11.820;2023-03-31T15:37:10;14.90;;;6.22;;
46282;SDS011;32017;43.700;11.820;2023-03-31T15:39:30;13.73;;;6.03;;
46282;SDS011;32017;43.700;11.820;2023-03-31T15:41:51;8.32;;;5.90;;
46282;SDS011;32017;43.700;11.820;2023-03-31T15:46:58;7.90;;;3.97;;
46282;SDS011;32017;43.700;11.820;2023-03-31T15:49:20;13.82;;;5.03;;
46282;SDS011;32017;43.700;11.820;2023-03-31T15:51:40;11.57;;;4.95;;
46282;SDS011;32017;43.700;11.820;2023-03-31T15:54:01;11.38;;;5.05;;
46282;SDS011;32017;43.700;11.820;2023-03-31T15:58:54;11.30;;;4.75;;
46282;SDS011;32017;43.700;11.820;2023-03-31T16:01:14;17.55;;;4.72;;
46282;SDS011;32017;43.700;11.820;2023-03-31T16:03:35;12.88;;;6.13;;
46282;SDS011;32017;43.700;11.820;2023-03-31T16:05:57;6.90;;;4.22;;
46282;SDS011;32017;43.700;11.820;2023-03-31T16:08:20;9.00;;;4.32;;
46282;SDS011;32017;43.700;11.820;2023-03-31T16:10:40;5.55;;;4.32;;
46282;SDS011;32017;43.700;11.820;2023-03-31T16:13:02;6.03;;;4.10;;
46282;SDS011;32017;43.700;11.820;2023-03-31T16:15:43;8.63;;;3.88;;
46282;SDS011;32017;43.700;11.820;2023-03-31T16:18:16;8.48;;;3.80;;
46282;SDS011;32017;43.700;11.820;2023-03-31T16:20:38;11.53;;;4.83;;
46282;SDS011;32017;43.700;11.820;2023-03-31T16:23:01;9.50;;;4.22;;
46282;SDS011;32017;43.700;11.820;2023-03-31T16:25:22;13.45;;;4.13;;
46282;SDS011;32017;43.700;11.820;2023-03-31T16:27:50;14.32;;;5.78;;
46282;SDS011;32017;43.700;11.820;2023-03-31T16:30:13;12.77;;;5.07;;
46282;SDS011;32017;43.700;11.820;2023-03-31T16:32:34;11.30;;;4.53;;
46282;SDS011;32017;43.700;11.820;2023-03-31T16:34:58;11.10;;;5.15;;
46282;SDS011;32017;43.700;11.820;2023-03-31T16:37:19;7.38;;;4.85;;
46282;SDS011;32017;43.700;11.820;2023-03-31T16:39:39;9.57;;;4.18;;
46282;SDS011;32017;43.700;11.820;2023-03-31T16:42:00;11.38;;;6.88;;
46282;SDS011;32017;43.700;11.820;2023-03-31T16:44:20;9.93;;;4.45;;
46282;SDS011;32017;43.700;11.820;2023-03-31T16:46:40;12.65;;;5.25;;
46282;SDS011;32017;43.700;11.820;2023-03-31T16:49:00;8.18;;;4.38;;
46282;SDS011;32017;43.700;11.820;2023-03-31T16:51:21;9.38;;;4.40;;
46282;SDS011;32017;43.700;11.820;2023-03-31T16:53:42;9.68;;;4.55;;
46282;SDS011;32017;43.700;11.820;2023-03-31T16:56:03;8.93;;;4.25;;
46282;SDS011;32017;43.700;11.820;2023-03-31T17:00:47;6.97;;;5.22;;
46282;SDS011;32017;43.700;11.820;2023-03-31T17:03:08;8.13;;;4.85;;